Terminal Aerodrome Forecast
Issued by NWS

Home | Current Version | Previous Version | Text Only | Print | Product List | Glossary On
Versions: 1 2 3 4 5 6 7 8 9 10 11 12 13 14 15 16 17 18 19 20 21 22 23 24
000
FTUS46 KMTR 231727
TAFMRY
TAF
KMRY 231727Z 2318/2418 28009KT P6SM SKC
     FM240300 21005KT P6SM FEW015
     FM240600 18004KT P6SM SCT015
     FM241000 VRB03KT P6SM BKN007
     FM241200 VRB03KT 2SM BR BKN005
     FM241500 29004KT P6SM SCT005=

USA.gov is the U.S. government's official web portal to all federal, state and local government web resources and services.